Time;durP1;ratioP1;P1;durP2;ratioP2;P2;SDS_P1;SDS_P2;PMS_P1;PMS_P2;Temp;Humidity;BMP_temperature;BMP_pressure;BME280_temperature;BME280_humidity;BME280_pressure;Samples;Min_cycle;Max_cycle;Signal;HPM_P1;HPM_P2
2022/02/19 05:00:13;;;;;;;1.05;0.90;;;4.80;99.90;;;;;;5978507;23;20191;31
2022/02/19 05:02:41;;;;;;;0.95;0.50;;;4.80;99.90;;;;;;4891034;29;20235;-66
2022/02/19 05:05:09;;;;;;;2.25;1.17;;;4.80;99.90;;;;;;4892422;29;20259;-65
2022/02/19 05:07:36;;;;;;;0.63;0.60;;;4.70;99.90;;;;;;4883177;29;20644;-65
2022/02/19 05:10:04;;;;;;;0.70;0.70;;;4.70;99.90;;;;;;4895725;29;20294;-64
2022/02/19 05:12:30;;;;;;;1.15;0.73;;;4.70;99.90;;;;;;4895015;29;20227;-65
2022/02/19 05:14:58;;;;;;;0.60;0.60;;;4.70;99.90;;;;;;4895608;29;20585;-65
2022/02/19 05:17:24;;;;;;;0.65;0.65;;;4.60;99.90;;;;;;4895595;29;20732;-65
2022/02/19 05:19:52;;;;;;;0.73;0.73;;;4.60;99.90;;;;;;4892513;29;20336;-65
2022/02/19 05:22:19;;;;;;;2.25;0.50;;;4.60;99.90;;;;;;4889083;29;20371;-65
2022/02/19 05:24:46;;;;;;;2.17;0.55;;;4.60;99.90;;;;;;4883980;29;20212;-65
2022/02/19 05:27:12;;;;;;;2.08;0.60;;;4.60;99.90;;;;;;4882033;29;20207;-64
2022/02/19 05:29:39;;;;;;;1.52;0.60;;;4.60;99.90;;;;;;4879115;29;20213;-65
2022/02/19 05:32:06;;;;;;;1.85;0.55;;;4.60;99.90;;;;;;4894537;29;20222;-66
2022/02/19 05:34:33;;;;;;;0.85;0.40;;;4.60;99.90;;;;;;4878636;29;20300;-65
2022/02/19 05:37:01;;;;;;;1.10;0.30;;;4.60;99.90;;;;;;4887598;29;20211;-65
2022/02/19 05:39:27;;;;;;;0.52;0.52;;;4.60;99.90;;;;;;4895266;29;20311;-65
2022/02/19 05:41:54;;;;;;;0.30;0.30;;;4.60;99.90;;;;;;4894385;29;20235;-66
2022/02/19 05:44:21;;;;;;;1.95;0.45;;;4.60;99.90;;;;;;4895540;29;20223;-65
2022/02/19 05:46:47;;;;;;;0.57;0.57;;;4.60;99.90;;;;;;4895982;29;20219;-66
2022/02/19 05:49:14;;;;;;;1.08;0.30;;;4.60;99.90;;;;;;4894719;29;20207;-65
2022/02/19 05:51:41;;;;;;;2.03;0.28;;;4.60;99.90;;;;;;4893649;29;20271;-66
2022/02/19 05:54:09;;;;;;;0.80;0.80;;;4.60;99.90;;;;;;4889545;29;20649;-66
2022/02/19 05:56:36;;;;;;;1.30;1.20;;;4.60;99.90;;;;;;4895007;29;20222;-65
2022/02/19 05:59:02;;;;;;;0.95;0.40;;;4.50;99.90;;;;;;4886692;29;20208;-65
2022/02/19 06:01:30;;;;;;;1.83;0.98;;;4.50;99.90;;;;;;4877920;29;20680;-66
2022/02/19 06:03:57;;;;;;;1.75;0.40;;;4.40;99.90;;;;;;4889854;29;20679;-66
2022/02/19 06:06:23;;;;;;;0.90;0.57;;;4.40;99.90;;;;;;4891652;29;20575;-65
2022/02/19 06:08:50;;;;;;;0.52;0.20;;;4.40;99.90;;;;;;4881912;29;20204;-66
2022/02/19 06:11:18;;;;;;;0.20;0.20;;;4.50;99.90;;;;;;4875876;29;20287;-66
2022/02/19 06:13:45;;;;;;;0.40;0.32;;;4.50;99.90;;;;;;4884155;29;20211;-66
2022/02/19 06:16:12;;;;;;;0.30;0.30;;;4.50;99.90;;;;;;4895738;29;20212;-66
2022/02/19 06:18:38;;;;;;;0.30;0.30;;;4.50;99.90;;;;;;4895818;29;20567;-66
2022/02/19 06:21:05;;;;;;;1.45;0.45;;;4.50;99.90;;;;;;4894198;29;20294;-66
2022/02/19 06:23:32;;;;;;;0.55;0.40;;;4.50;99.90;;;;;;4883993;29;20208;-66
2022/02/19 06:25:58;;;;;;;0.90;0.70;;;4.50;99.90;;;;;;4888368;29;20629;-66
2022/02/19 06:28:26;;;;;;;0.73;0.73;;;4.50;99.90;;;;;;4884456;29;20753;-67
2022/02/19 06:30:53;;;;;;;0.98;0.93;;;4.50;99.90;;;;;;4878235;29;20249;-66
2022/02/19 06:33:20;;;;;;;1.20;1.08;;;4.50;99.90;;;;;;4899274;29;20524;-66
2022/02/19 06:35:46;;;;;;;0.60;0.60;;;4.50;99.90;;;;;;4896206;29;20617;-66
2022/02/19 06:38:13;;;;;;;1.42;1.33;;;4.50;99.90;;;;;;4897599;29;20657;-66
2022/02/19 06:40:40;;;;;;;3.28;1.27;;;4.50;99.90;;;;;;4895127;29;20239;-65
2022/02/19 06:43:06;;;;;;;1.27;1.20;;;4.60;99.90;;;;;;4884550;29;20207;-66
2022/02/19 06:45:34;;;;;;;0.95;0.95;;;4.60;99.90;;;;;;4880153;29;20220;-67
2022/02/19 06:48:01;;;;;;;0.70;0.70;;;4.60;99.90;;;;;;4897629;29;20628;-66
2022/02/19 06:50:28;;;;;;;1.05;0.90;;;4.60;99.90;;;;;;4898858;29;20215;-66
2022/02/19 06:52:55;;;;;;;0.88;0.70;;;4.60;99.90;;;;;;4883183;29;20575;-66
2022/02/19 06:55:22;;;;;;;0.60;0.60;;;4.70;99.90;;;;;;4883704;29;20559;-67
2022/02/19 06:57:49;;;;;;;1.60;0.50;;;4.70;99.90;;;;;;4897489;29;20210;-66
2022/02/19 07:00:17;;;;;;;0.43;0.40;;;4.70;99.90;;;;;;4895559;29;20622;-67
2022/02/19 07:02:46;;;;;;;0.57;0.57;;;4.70;99.90;;;;;;4888349;29;20300;-67
2022/02/19 07:05:13;;;;;;;0.35;0.35;;;4.80;99.90;;;;;;4889460;29;20229;-67
2022/02/19 07:07:40;;;;;;;0.30;0.30;;;4.80;99.90;;;;;;4888387;29;20212;-67
2022/02/19 07:10:09;;;;;;;3.53;0.60;;;4.90;99.90;;;;;;4884524;29;20219;-67
2022/02/19 07:12:37;;;;;;;0.93;0.73;;;5.00;99.90;;;;;;4892385;29;20246;-67
2022/02/19 07:15:07;;;;;;;0.40;0.40;;;5.10;99.90;;;;;;4886494;29;20204;-67
2022/02/19 07:17:34;;;;;;;0.52;0.50;;;5.10;99.90;;;;;;4892746;29;20621;-66
2022/02/19 07:20:02;;;;;;;2.65;1.02;;;5.10;99.90;;;;;;4891672;29;20669;-66
2022/02/19 07:22:29;;;;;;;1.13;0.43;;;5.10;99.90;;;;;;4880316;29;20231;-67
2022/02/19 07:24:55;;;;;;;0.63;0.63;;;5.10;99.90;;;;;;4896251;29;20287;-66
2022/02/19 07:27:22;;;;;;;0.80;0.80;;;5.10;99.90;;;;;;4883638;29;20260;-66
2022/02/19 07:29:48;;;;;;;0.50;0.50;;;5.10;99.90;;;;;;4894407;29;20255;-67
2022/02/19 07:32:16;;;;;;;0.40;0.40;;;5.20;99.90;;;;;;4882964;29;20303;-67
2022/02/19 07:34:42;;;;;;;0.85;0.55;;;5.20;99.90;;;;;;4887544;29;20212;-66
2022/02/19 07:37:10;;;;;;;0.40;0.40;;;5.20;99.90;;;;;;4892284;29;20275;-67
2022/02/19 07:39:37;;;;;;;0.70;0.70;;;5.30;99.90;;;;;;4897011;29;20271;-67
2022/02/19 07:42:04;;;;;;;0.80;0.80;;;5.30;99.90;;;;;;4887981;29;20733;-67
2022/02/19 07:44:31;;;;;;;0.90;0.90;;;5.30;99.90;;;;;;4892352;29;20204;-67
2022/02/19 07:46:58;;;;;;;0.60;0.60;;;5.40;99.90;;;;;;4896920;29;20204;-65
2022/02/19 08:00:22;;;;;;;1.02;1.02;;;5.60;99.90;;;;;;4885661;29;20341;-67
2022/02/19 08:02:49;;;;;;;1.40;1.30;;;5.70;99.90;;;;;;4884426;29;20226;-67
2022/02/19 08:05:16;;;;;;;0.82;0.82;;;5.60;99.90;;;;;;4887275;29;20207;-67
2022/02/19 08:07:44;;;;;;;0.88;0.88;;;5.60;99.90;;;;;;4897436;29;20284;-67
2022/02/19 08:10:10;;;;;;;0.82;0.82;;;5.50;99.90;;;;;;4887779;29;20255;-67
2022/02/19 08:12:37;;;;;;;1.00;1.00;;;5.50;99.90;;;;;;4880758;29;20465;-67
2022/02/19 08:15:05;;;;;;;0.35;0.30;;;5.40;99.90;;;;;;4879320;29;20279;-68
2022/02/19 08:17:31;;;;;;;0.38;0.38;;;5.30;99.90;;;;;;4883811;29;20212;-67
2022/02/19 08:19:58;;;;;;;0.30;0.30;;;5.40;99.90;;;;;;4892158;29;20526;-67
2022/02/19 08:22:25;;;;;;;1.00;0.60;;;5.30;99.90;;;;;;4896782;29;20283;-67
2022/02/19 08:24:53;;;;;;;0.30;0.30;;;5.30;99.90;;;;;;4896405;29;20289;-66
2022/02/19 08:27:20;;;;;;;0.90;0.40;;;5.30;99.90;;;;;;4878576;29;20267;-67
2022/02/19 08:29:46;;;;;;;0.30;0.30;;;5.30;99.90;;;;;;4883094;29;20203;-66
2022/02/19 08:32:13;;;;;;;0.80;0.75;;;5.30;99.90;;;;;;4897398;29;20235;-69
2022/02/19 08:34:40;;;;;;;0.57;0.57;;;5.20;99.90;;;;;;4893563;29;20207;-68
2022/02/19 08:37:07;;;;;;;0.60;0.60;;;5.20;99.90;;;;;;4882546;29;20203;-69
2022/02/19 08:39:34;;;;;;;0.68;0.68;;;5.30;99.90;;;;;;4886180;29;20215;-67
2022/02/19 08:42:03;;;;;;;1.42;0.65;;;5.30;99.90;;;;;;4882450;29;20741;-66
2022/02/19 08:44:29;;;;;;;2.50;0.65;;;5.30;99.90;;;;;;4881344;29;20208;-67
2022/02/19 08:46:56;;;;;;;1.15;0.70;;;5.30;99.90;;;;;;4881141;29;20207;-67
2022/02/19 08:49:23;;;;;;;0.68;0.68;;;5.30;99.90;;;;;;4882749;29;20215;-66
2022/02/19 08:51:49;;;;;;;2.85;0.57;;;5.20;99.90;;;;;;4888192;29;20248;-66
2022/02/19 08:54:16;;;;;;;0.50;0.50;;;5.20;99.90;;;;;;4889093;29;20207;-66
2022/02/19 08:56:44;;;;;;;0.55;0.55;;;5.20;99.90;;;;;;4893016;29;20207;-67
2022/02/19 08:59:12;;;;;;;0.50;0.50;;;5.20;99.90;;;;;;4889261;29;20200;-67
2022/02/19 09:01:39;;;;;;;1.23;0.70;;;5.20;99.90;;;;;;4886702;29;20236;-67
2022/02/19 09:04:07;;;;;;;0.52;0.52;;;5.20;99.90;;;;;;4877294;29;20220;-66
2022/02/19 09:06:35;;;;;;;0.50;0.50;;;5.20;99.90;;;;;;4883898;29;20302;-66
2022/02/19 09:09:02;;;;;;;1.13;1.13;;;5.10;99.90;;;;;;4888717;29;20290;-66
2022/02/19 09:11:29;;;;;;;0.88;0.82;;;5.10;99.90;;;;;;4884607;29;20610;-67
2022/02/19 09:13:56;;;;;;;2.80;1.92;;;5.00;99.90;;;;;;4891611;29;20263;-67
2022/02/19 09:16:24;;;;;;;0.98;0.98;;;4.90;99.90;;;;;;4885706;29;20733;-67
2022/02/19 09:18:50;;;;;;;1.02;1.02;;;4.80;99.90;;;;;;4890490;29;20215;-67
2022/02/19 09:21:17;;;;;;;1.50;1.40;;;4.70;99.90;;;;;;4890938;29;20242;-67
2022/02/19 09:23:44;;;;;;;1.10;1.10;;;4.60;99.90;;;;;;4889372;29;20219;-68
2022/02/19 09:26:10;;;;;;;1.27;1.17;;;4.60;99.90;;;;;;4883414;29;20216;-66
2022/02/19 09:28:39;;;;;;;0.90;0.90;;;4.60;99.90;;;;;;4887948;29;20493;-66
2022/02/19 09:31:06;;;;;;;0.75;0.75;;;4.50;99.90;;;;;;4886421;29;20236;-66
2022/02/19 09:33:34;;;;;;;0.50;0.50;;;4.50;99.90;;;;;;4885231;29;20287;-67
2022/02/19 09:36:00;;;;;;;1.48;0.73;;;4.40;99.90;;;;;;4881281;29;20221;-67
2022/02/19 09:38:27;;;;;;;1.05;1.05;;;4.40;99.90;;;;;;4888960;29;20208;-68
2022/02/19 09:40:55;;;;;;;0.80;0.80;;;4.30;99.90;;;;;;4876734;29;20230;-66
2022/02/19 09:43:22;;;;;;;0.60;0.60;;;4.30;99.90;;;;;;4881795;29;20228;-66
2022/02/19 09:45:50;;;;;;;0.55;0.55;;;4.20;99.90;;;;;;4884395;29;20291;-67
2022/02/19 09:48:18;;;;;;;0.88;0.88;;;4.10;99.90;;;;;;4887680;29;20295;-66
2022/02/19 09:50:48;;;;;;;1.13;1.10;;;3.90;99.90;;;;;;4887248;29;20656;-66
2022/02/19 09:53:15;;;;;;;1.02;1.00;;;3.80;99.90;;;;;;4876787;29;20288;-66
2022/02/19 09:55:42;;;;;;;0.95;0.93;;;3.70;99.90;;;;;;4892685;29;20222;-66
2022/02/19 09:58:09;;;;;;;0.82;0.82;;;3.70;99.90;;;;;;4892230;29;20208;-67
2022/02/19 10:00:40;;;;;;;0.98;0.90;;;3.70;99.90;;;;;;4893087;29;20287;-67
2022/02/19 10:03:12;;;;;;;4.10;3.90;;;3.70;99.90;;;;;;4876826;29;20228;-66
2022/02/19 10:05:39;;;;;;;0.88;0.88;;;3.80;99.90;;;;;;4876541;29;20291;-67
2022/02/19 10:08:08;;;;;;;1.05;1.05;;;3.80;99.90;;;;;;4882083;29;20220;-66
2022/02/19 10:10:35;;;;;;;1.58;1.20;;;3.80;99.90;;;;;;4883442;29;20732;-66
2022/02/19 10:13:03;;;;;;;2.38;1.75;;;3.80;99.90;;;;;;4880185;29;20215;-67
2022/02/19 10:15:45;;;;;;;1.10;1.10;;;4.00;99.90;;;;;;4877963;29;20208;-66
2022/02/19 10:18:28;;;;;;;2.45;1.35;;;4.00;99.90;;;;;;4885445;29;20208;-66
2022/02/19 10:21:10;;;;;;;1.80;1.80;;;4.10;99.90;;;;;;4891745;29;20625;-67
2022/02/19 10:23:41;;;;;;;1.85;1.75;;;4.10;99.90;;;;;;4894126;29;20560;-66
2022/02/19 10:26:08;;;;;;;1.67;1.67;;;4.20;99.90;;;;;;4890637;29;20271;-67
2022/02/19 10:28:35;;;;;;;1.60;1.60;;;4.20;99.90;;;;;;4891743;29;20216;-65
2022/02/19 10:31:13;;;;;;;2.25;1.30;;;4.40;99.90;;;;;;4886300;29;20223;-67
2022/02/19 10:33:40;;;;;;;2.45;2.35;;;4.60;99.90;;;;;;4879587;29;20212;-66
2022/02/19 10:36:14;;;;;;;6.47;2.33;;;4.70;99.90;;;;;;4876704;29;20299;-66
2022/02/19 10:38:56;;;;;;;2.30;2.20;;;4.90;99.90;;;;;;4887022;29;20297;-67
2022/02/19 10:41:34;;;;;;;3.03;1.35;;;5.10;99.90;;;;;;4886972;29;20290;-67
2022/02/19 10:44:20;;;;;;;6.55;1.92;;;5.20;99.90;;;;;;4888959;29;20207;-66
2022/02/19 10:46:47;;;;;;;2.22;1.90;;;5.30;99.90;;;;;;4892814;29;20294;-67
2022/02/19 10:49:14;;;;;;;2.30;2.10;;;5.50;99.90;;;;;;4892968;29;20211;-69
2022/02/19 10:51:42;;;;;;;6.82;2.40;;;5.70;99.90;;;;;;4894339;29;20291;-67
2022/02/19 10:54:12;;;;;;;2.60;2.40;;;5.70;99.90;;;;;;4886600;29;20218;-67
2022/02/19 10:56:41;;;;;;;7.00;2.08;;;5.70;99.90;;;;;;4875419;29;20208;-68
2022/02/19 10:59:09;;;;;;;5.20;2.67;;;5.70;99.90;;;;;;4884841;29;20213;-68
2022/02/19 11:01:40;;;;;;;3.95;2.60;;;5.70;99.90;;;;;;4877927;29;20652;-69
2022/02/19 11:04:08;;;;;;;3.70;2.70;;;5.80;99.90;;;;;;4883334;29;20669;-68
2022/02/19 11:06:35;;;;;;;4.15;2.33;;;5.90;99.90;;;;;;4878297;29;20211;-67
2022/02/19 11:09:03;;;;;;;4.40;2.20;;;5.90;99.90;;;;;;4884436;29;20286;-67
2022/02/19 11:11:33;;;;;;;8.55;3.20;;;6.00;99.90;;;;;;4884662;29;20310;-67
2022/02/19 11:14:01;;;;;;;9.38;4.43;;;6.00;99.90;;;;;;4892122;29;20208;-68
2022/02/19 11:16:29;;;;;;;5.15;2.80;;;6.10;99.90;;;;;;4895664;29;20219;-67
2022/02/19 11:18:56;;;;;;;5.10;2.10;;;6.10;99.90;;;;;;4888185;29;20211;-67
2022/02/19 11:21:25;;;;;;;8.40;1.90;;;6.10;99.90;;;;;;4885098;29;20306;-67
2022/02/19 11:23:54;;;;;;;5.38;2.83;;;6.10;99.90;;;;;;4899018;29;20230;-67
2022/02/19 11:26:23;;;;;;;3.05;1.90;;;6.10;99.90;;;;;;4894292;29;20279;-67
2022/02/19 11:28:52;;;;;;;2.35;2.25;;;6.10;99.90;;;;;;4887583;29;20219;-67
2022/02/19 11:31:20;;;;;;;4.70;1.80;;;6.00;99.90;;;;;;4893306;29;20275;-68
2022/02/19 11:33:49;;;;;;;3.65;2.53;;;5.90;99.90;;;;;;4893422;29;20204;-68
2022/02/19 11:36:16;;;;;;;6.25;3.50;;;5.80;99.90;;;;;;4885556;29;20242;-67
2022/02/19 11:38:50;;;;;;;2.20;2.10;;;5.70;99.90;;;;;;4885924;29;20785;-67
2022/02/19 11:41:31;;;;;;;2.22;1.08;;;5.60;99.90;;;;;;4889396;29;20672;-67
2022/02/19 11:43:59;;;;;;;1.52;1.20;;;5.60;99.90;;;;;;4899500;29;20222;-68
2022/02/19 11:46:34;;;;;;;2.33;1.80;;;5.50;99.90;;;;;;4886189;29;20267;-67
2022/02/19 11:49:17;;;;;;;1.83;1.73;;;5.50;99.90;;;;;;4888382;29;20237;-67
2022/02/19 11:51:44;;;;;;;2.92;1.80;;;5.70;99.90;;;;;;4886269;29;20279;-66
2022/02/19 11:54:25;;;;;;;2.47;2.05;;;5.80;99.90;;;;;;4895544;29;20232;-68
2022/02/19 11:56:52;;;;;;;5.15;2.75;;;6.00;99.90;;;;;;4889321;29;20590;-68
2022/02/19 11:59:21;;;;;;;4.50;3.08;;;6.10;99.90;;;;;;4884110;29;20279;-67
2022/02/19 12:02:13;;;;;;;1.63;1.52;;;6.20;99.90;;;;;;4888715;29;20232;-67
2022/02/19 12:04:40;;;;;;;2.20;2.03;;;6.30;99.90;;;;;;4896044;29;20264;-68
2022/02/19 12:07:17;;;;;;;7.03;2.88;;;6.40;99.90;;;;;;4890742;29;20203;-67
2022/02/19 12:10:05;;;;;;;3.53;3.20;;;6.50;99.90;;;;;;4912625;29;20682;-68
2022/02/19 12:13:08;;;;;;;2.40;2.20;;;6.60;99.90;;;;;;4888957;29;20257;-66
2022/02/19 12:15:37;;;;;;;4.47;2.53;;;6.90;99.90;;;;;;4886993;29;20218;-66
2022/02/19 12:18:04;;;;;;;2.92;2.70;;;7.20;99.90;;;;;;4901100;29;20263;-67
2022/02/19 12:20:36;;;;;;;2.03;1.92;;;7.30;99.90;;;;;;4894263;29;20364;-68
2022/02/19 12:23:06;;;;;;;2.45;2.35;;;7.30;99.90;;;;;;4893237;29;20637;-67
2022/02/19 12:25:59;;;;;;;4.35;1.70;;;7.30;99.90;;;;;;4890723;29;20218;-68
2022/02/19 12:28:26;;;;;;;1.83;1.52;;;7.40;99.90;;;;;;4896715;29;20259;-67
2022/02/19 12:31:20;;;;;;;1.67;1.40;;;7.40;99.90;;;;;;4896161;29;20262;-67
2022/02/19 12:33:48;;;;;;;1.63;1.63;;;7.40;99.90;;;;;;4896788;29;20221;-68
2022/02/19 12:36:15;;;;;;;5.10;2.50;;;7.50;99.90;;;;;;4896668;29;20273;-68
2022/02/19 12:38:46;;;;;;;2.28;1.30;;;7.40;99.90;;;;;;4897110;29;20211;-67
2022/02/19 12:41:13;;;;;;;1.40;1.30;;;7.40;99.90;;;;;;4895506;29;20337;-67
2022/02/19 12:43:41;;;;;;;3.97;1.40;;;7.40;99.90;;;;;;4892279;29;20239;-67
2022/02/19 12:46:10;;;;;;;2.85;1.38;;;7.30;99.90;;;;;;4905016;29;20199;-67
2022/02/19 12:48:37;;;;;;;2.83;2.00;;;7.30;99.90;;;;;;4903642;29;20576;-67
2022/02/19 12:51:04;;;;;;;2.65;0.90;;;7.30;99.90;;;;;;4895702;29;20227;-67
2022/02/19 12:53:30;;;;;;;1.60;1.35;;;7.30;99.90;;;;;;4896836;29;20215;-68
2022/02/19 12:55:58;;;;;;;5.05;1.20;;;7.30;99.90;;;;;;4893602;29;20218;-68
2022/02/19 12:58:25;;;;;;;5.15;1.98;;;7.30;99.90;;;;;;4878306;29;20215;-68
2022/02/19 13:00:53;;;;;;;0.55;0.55;;;7.20;99.90;;;;;;4877696;29;20247;-68
2022/02/19 13:03:21;;;;;;;3.20;1.98;;;7.00;99.90;;;;;;4877600;29;20238;-68
2022/02/19 13:05:54;;;;;;;4.03;1.65;;;6.90;99.90;;;;;;4878291;29;20283;-67
2022/02/19 13:08:21;;;;;;;2.30;1.27;;;6.80;99.90;;;;;;4877747;29;20216;-68
2022/02/19 13:10:49;;;;;;;7.72;2.15;;;6.70;99.90;;;;;;4878111;29;20227;-68
2022/02/19 13:13:18;;;;;;;4.32;1.63;;;6.50;99.90;;;;;;4905008;29;20214;-67
2022/02/19 13:15:55;;;;;;;3.50;1.77;;;6.40;99.90;;;;;;4904860;29;20212;-67
2022/02/19 13:18:23;;;;;;;1.38;1.17;;;6.20;99.90;;;;;;4902013;29;20649;-67
2022/02/19 13:20:50;;;;;;;5.38;1.25;;;6.10;99.90;;;;;;4896120;29;20227;-67
2022/02/19 13:23:28;;;;;;;2.13;1.50;;;6.00;99.90;;;;;;4895883;29;20239;-67
2022/02/19 13:25:55;;;;;;;2.78;1.27;;;5.80;99.90;;;;;;4908859;29;20214;-67
2022/02/19 13:28:22;;;;;;;1.55;1.45;;;5.60;99.90;;;;;;4901874;29;20266;-67
2022/02/19 13:30:49;;;;;;;3.67;2.20;;;5.50;99.90;;;;;;4904724;29;20321;-67
2022/02/19 13:33:15;;;;;;;2.58;0.90;;;5.40;99.90;;;;;;4880499;29;20594;-67
2022/02/19 13:35:44;;;;;;;5.63;1.35;;;5.40;99.90;;;;;;4877167;29;20216;-66
2022/02/19 13:38:11;;;;;;;2.22;1.70;;;5.40;99.90;;;;;;4877288;29;20212;-70
2022/02/19 13:40:38;;;;;;;1.65;0.90;;;5.60;99.90;;;;;;4877463;29;20284;-69
2022/02/19 13:43:13;;;;;;;2.17;1.63;;;5.60;99.90;;;;;;4876519;29;20231;-68
2022/02/19 13:45:42;;;;;;;3.65;1.65;;;5.60;99.90;;;;;;4876936;29;20737;-70
2022/02/19 13:48:10;;;;;;;2.75;1.10;;;5.60;99.90;;;;;;4887453;29;20358;-70
2022/02/19 13:50:38;;;;;;;2.03;1.58;;;5.70;99.90;;;;;;4894647;29;20261;-70
2022/02/19 13:53:08;;;;;;;2.40;1.40;;;5.70;99.90;;;;;;4893602;29;20215;-69
2022/02/19 13:55:36;;;;;;;4.75;3.10;;;5.80;99.90;;;;;;4876809;29;20208;-69
2022/02/19 13:58:12;;;;;;;2.15;1.02;;;5.80;99.90;;;;;;4876042;29;20216;-69
2022/02/19 14:00:40;;;;;;;6.10;1.20;;;5.90;99.90;;;;;;4875756;29;20295;-68
2022/02/19 14:03:07;;;;;;;2.90;1.45;;;5.90;99.90;;;;;;4876312;29;20705;-69
2022/02/19 14:05:43;;;;;;;3.65;2.33;;;6.00;99.90;;;;;;4893319;29;20277;-69
2022/02/19 14:08:13;;;;;;;2.63;1.75;;;6.00;99.90;;;;;;4899414;29;20665;-69
2022/02/19 14:10:54;;;;;;;8.50;1.70;;;6.10;99.90;;;;;;4886878;29;20232;-68
2022/02/19 14:13:22;;;;;;;3.05;1.67;;;6.30;99.90;;;;;;4876574;29;20219;-68
2022/02/19 14:15:49;;;;;;;3.60;2.00;;;6.50;99.90;;;;;;4876286;29;20303;-69
2022/02/19 14:18:17;;;;;;;6.80;1.65;;;6.60;99.90;;;;;;4887773;29;20298;-69
2022/02/19 14:20:45;;;;;;;1.60;1.50;;;6.60;99.90;;;;;;4913454;29;20573;-68
2022/02/19 14:23:25;;;;;;;2.72;2.00;;;6.70;99.90;;;;;;4896159;29;20345;-69
2022/02/19 14:25:54;;;;;;;1.85;1.10;;;6.60;99.90;;;;;;4894202;29;20234;-67
2022/02/19 14:28:22;;;;;;;1.77;1.42;;;6.50;99.90;;;;;;4895876;29;20349;-68
2022/02/19 14:30:49;;;;;;;3.92;1.40;;;6.50;99.90;;;;;;4894862;29;20333;-68
2022/02/19 14:33:17;;;;;;;3.45;0.90;;;6.50;99.90;;;;;;4895661;29;21034;-69
2022/02/19 14:35:45;;;;;;;5.03;2.05;;;6.50;99.90;;;;;;4890573;29;20207;-69
2022/02/19 14:38:17;;;;;;;2.00;1.73;;;6.60;99.90;;;;;;4883421;29;20212;-68
2022/02/19 14:40:45;;;;;;;2.55;2.33;;;6.70;99.90;;;;;;4881298;29;20673;-67
2022/02/19 14:43:12;;;;;;;5.00;1.42;;;6.60;99.90;;;;;;4901378;29;20227;-69
2022/02/19 14:45:39;;;;;;;1.48;1.38;;;6.50;99.90;;;;;;4887095;29;20653;-69
2022/02/19 14:48:06;;;;;;;5.88;1.70;;;6.50;99.90;;;;;;4881366;29;20220;-69
2022/02/19 14:50:33;;;;;;;2.00;1.85;;;6.40;99.90;;;;;;4881844;29;20227;-68
2022/02/19 14:53:02;;;;;;;3.15;1.98;;;6.40;99.90;;;;;;4890446;29;21084;-68
2022/02/19 14:55:29;;;;;;;5.07;1.73;;;6.40;99.90;;;;;;4897569;29;20286;-68
2022/02/19 14:57:57;;;;;;;1.77;1.65;;;6.30;99.90;;;;;;4897187;29;20211;-68
2022/02/19 15:00:23;;;;;;;2.80;1.27;;;6.30;99.90;;;;;;4892031;29;20223;-67
2022/02/19 15:02:50;;;;;;;1.27;1.10;;;6.30;99.90;;;;;;4881794;29;20240;-68
2022/02/19 15:05:17;;;;;;;2.35;1.45;;;6.30;99.90;;;;;;4894220;29;20271;-69
2022/02/19 15:07:44;;;;;;;3.42;1.92;;;6.40;99.90;;;;;;4897821;29;20215;-67
2022/02/19 15:10:12;;;;;;;4.88;1.63;;;6.30;99.90;;;;;;4888563;29;20208;-69
2022/02/19 15:12:39;;;;;;;2.50;1.40;;;6.30;99.90;;;;;;4888094;29;20235;-69
2022/02/19 15:15:08;;;;;;;4.43;1.38;;;6.40;99.90;;;;;;4889190;29;20208;-68
2022/02/19 15:17:35;;;;;;;3.58;1.20;;;6.40;99.90;;;;;;4889822;29;20819;-68
2022/02/19 15:20:01;;;;;;;2.03;1.45;;;6.40;99.90;;;;;;4901144;29;20541;-68
2022/02/19 15:22:28;;;;;;;1.15;1.15;;;6.30;99.90;;;;;;4882621;29;20228;-67
2022/02/19 15:24:55;;;;;;;2.40;1.23;;;6.40;99.90;;;;;;4883368;29;20242;-68
2022/02/19 15:27:21;;;;;;;1.23;1.13;;;6.40;99.90;;;;;;4896974;29;20258;-71
2022/02/19 15:29:50;;;;;;;1.85;0.63;;;6.40;99.90;;;;;;4885165;29;20268;-69
2022/02/19 15:32:18;;;;;;;3.65;0.90;;;6.30;99.90;;;;;;4884245;29;20235;-68
2022/02/19 15:34:45;;;;;;;2.22;1.15;;;6.30;99.90;;;;;;4881685;29;20203;-69
2022/02/19 15:37:12;;;;;;;1.38;1.35;;;6.30;99.90;;;;;;4878606;29;20216;-69
2022/02/19 15:39:39;;;;;;;3.75;1.20;;;6.20;99.90;;;;;;4889563;29;20207;-68
2022/02/19 15:42:07;;;;;;;1.95;1.33;;;6.20;99.90;;;;;;4904902;29;20684;-68
2022/02/19 15:44:34;;;;;;;6.93;2.05;;;6.10;99.90;;;;;;4896482;29;20315;-68
2022/02/19 15:47:01;;;;;;;4.22;1.25;;;6.10;99.90;;;;;;4895341;29;20628;-70
2022/02/19 15:49:29;;;;;;;3.90;1.25;;;6.10;99.90;;;;;;4890802;29;20219;-69
2022/02/19 15:51:55;;;;;;;2.38;1.10;;;6.00;99.90;;;;;;4896950;29;20239;-68
2022/02/19 15:54:22;;;;;;;2.60;1.90;;;6.00;99.90;;;;;;4891612;29;20204;-68
2022/02/19 15:56:49;;;;;;;4.55;1.20;;;6.00;99.90;;;;;;4883032;29;20223;-68
2022/02/19 15:59:16;;;;;;;1.88;1.20;;;6.00;99.90;;;;;;4899408;29;20215;-68
2022/02/19 16:01:42;;;;;;;1.52;1.45;;;5.90;99.90;;;;;;4894322;29;20278;-69
2022/02/19 16:04:09;;;;;;;10.55;4.72;;;5.90;99.90;;;;;;4887741;29;20267;-69
2022/02/19 16:06:38;;;;;;;11.48;5.35;;;5.80;99.90;;;;;;4896109;29;20207;-68
2022/02/19 16:09:05;;;;;;;4.03;3.65;;;5.80;99.90;;;;;;4893995;29;20208;-69
2022/02/19 16:11:34;;;;;;;3.03;2.75;;;5.80;99.90;;;;;;4895259;29;20377;-68
2022/02/19 16:14:00;;;;;;;2.70;1.75;;;5.80;99.90;;;;;;4878540;29;20214;-69
2022/02/19 16:16:27;;;;;;;4.05;2.00;;;5.80;99.90;;;;;;4890192;29;20203;-70
2022/02/19 16:18:54;;;;;;;6.85;2.42;;;5.70;99.90;;;;;;4890296;29;20355;-68
2022/02/19 16:21:20;;;;;;;5.80;2.15;;;5.80;99.90;;;;;;4885115;29;20282;-69
2022/02/19 16:23:48;;;;;;;7.85;3.10;;;5.70;99.90;;;;;;4897070;29;20267;-68
2022/02/19 16:26:16;;;;;;;4.90;2.50;;;5.80;99.90;;;;;;4890037;29;20212;-67
2022/02/19 16:28:43;;;;;;;6.32;2.33;;;5.70;99.90;;;;;;4904938;29;20213;-68
2022/02/19 16:31:10;;;;;;;2.97;2.22;;;5.70;99.90;;;;;;4900869;29;20740;-68
2022/02/19 16:33:38;;;;;;;2.10;2.00;;;5.60;99.90;;;;;;4896545;29;20203;-69
2022/02/19 16:36:05;;;;;;;7.30;1.60;;;5.60;99.90;;;;;;4888741;29;20691;-68
2022/02/19 16:38:33;;;;;;;23.08;8.00;;;5.60;99.90;;;;;;4895655;29;20225;-69
2022/02/19 16:41:01;;;;;;;4.43;3.53;;;5.50;99.90;;;;;;4888709;29;20228;-70
2022/02/19 16:43:28;;;;;;;10.68;4.38;;;5.50;99.90;;;;;;4883233;29;20278;-70
2022/02/19 16:46:00;;;;;;;7.50;3.75;;;5.50;99.90;;;;;;4890714;29;20629;-69
2022/02/19 16:48:27;;;;;;;7.93;4.97;;;5.40;99.90;;;;;;4886271;29;20227;-69
2022/02/19 16:50:54;;;;;;;3.67;3.38;;;5.50;99.90;;;;;;4878226;29;20243;-69
2022/02/19 16:53:21;;;;;;;5.43;2.78;;;5.40;99.90;;;;;;4886338;29;20219;-70
2022/02/19 16:55:47;;;;;;;2.75;2.30;;;5.40;99.90;;;;;;4877729;29;20687;-69
2022/02/19 16:58:15;;;;;;;3.08;2.33;;;5.40;99.90;;;;;;4879472;29;20216;-69
2022/02/19 17:00:42;;;;;;;1.70;1.70;;;5.40;99.90;;;;;;4880687;29;20381;-70
2022/02/19 17:03:11;;;;;;;1.10;1.10;;;5.30;99.90;;;;;;4884193;29;20214;-69
2022/02/19 17:05:38;;;;;;;4.90;2.53;;;5.30;99.90;;;;;;4893672;29;20621;-72
2022/02/19 17:08:05;;;;;;;3.95;3.40;;;5.30;99.90;;;;;;4899027;29;20204;-68
2022/02/19 17:10:32;;;;;;;6.55;5.57;;;5.30;99.90;;;;;;4881111;29;20218;-68
2022/02/19 17:13:02;;;;;;;5.43;3.83;;;5.30;99.90;;;;;;4885639;29;20208;-67
2022/02/19 17:15:30;;;;;;;4.10;2.15;;;5.40;99.90;;;;;;4883115;29;20816;-69
2022/02/19 17:17:56;;;;;;;3.83;2.53;;;5.40;99.90;;;;;;4888540;29;20262;-69
2022/02/19 17:20:23;;;;;;;3.88;2.63;;;5.40;99.90;;;;;;4882977;29;20211;-69
2022/02/19 17:22:50;;;;;;;3.28;2.50;;;5.50;99.90;;;;;;4899297;29;20668;-70
2022/02/19 17:25:16;;;;;;;4.60;2.40;;;5.50;99.90;;;;;;4905983;29;20254;-69
2022/02/19 17:27:43;;;;;;;2.47;2.10;;;5.50;99.90;;;;;;4894614;29;20208;-69
2022/02/19 17:30:12;;;;;;;1.90;1.80;;;5.60;99.90;;;;;;4889671;29;20212;-69
2022/02/19 17:32:40;;;;;;;2.70;2.15;;;5.60;99.90;;;;;;4900516;29;20761;-68
2022/02/19 17:35:08;;;;;;;4.22;2.25;;;5.60;99.90;;;;;;4891112;29;20239;-69
2022/02/19 17:37:35;;;;;;;3.15;1.85;;;5.60;99.90;;;;;;4908088;29;20270;-67
2022/02/19 17:40:01;;;;;;;2.85;1.58;;;5.60;99.90;;;;;;4883320;29;20207;-68
2022/02/19 17:42:28;;;;;;;2.58;1.73;;;5.60;99.90;;;;;;4894237;29;20250;-69
2022/02/19 17:44:55;;;;;;;3.28;1.30;;;5.60;99.90;;;;;;4884995;29;20219;-68
2022/02/19 17:47:22;;;;;;;1.75;1.65;;;5.70;99.90;;;;;;4890876;29;20627;-69
2022/02/19 17:49:50;;;;;;;3.13;1.25;;;5.70;99.90;;;;;;4890620;29;20223;-68
2022/02/19 17:52:16;;;;;;;7.60;2.38;;;5.70;99.90;;;;;;4887716;29;20235;-69
2022/02/19 17:54:44;;;;;;;6.15;1.80;;;5.70;99.90;;;;;;4907627;29;20208;-68
2022/02/19 17:57:10;;;;;;;3.90;1.08;;;5.70;99.90;;;;;;4887373;29;20207;-68
2022/02/19 17:59:39;;;;;;;5.25;1.85;;;5.70;99.90;;;;;;4886985;29;20210;-68
2022/02/19 18:02:06;;;;;;;2.75;1.70;;;5.60;99.90;;;;;;4884149;29;20232;-69
2022/02/19 18:04:33;;;;;;;4.07;1.30;;;5.70;99.90;;;;;;4896330;29;20262;-69
2022/02/19 18:07:02;;;;;;;4.70;1.38;;;5.70;99.90;;;;;;4885408;29;20206;-68
2022/02/19 18:09:28;;;;;;;4.15;1.45;;;5.70;99.90;;;;;;4889713;29;20223;-68
2022/02/19 18:11:55;;;;;;;2.70;2.00;;;5.70;99.90;;;;;;4887785;29;20299;-68
2022/02/19 18:14:22;;;;;;;2.08;1.80;;;5.60;99.90;;;;;;4890363;29;20220;-69